createdAt,value
2018-07-17T00:00:12.206Z,17.03
2018-07-17T00:02:39.251Z,17.16
2018-07-17T00:05:07.144Z,17.20
2018-07-17T00:07:34.050Z,17.32
2018-07-17T00:10:00.957Z,17.77
2018-07-17T00:12:28.897Z,17.35
2018-07-17T00:14:55.800Z,17.23
2018-07-17T00:17:22.711Z,17.17
2018-07-17T00:19:49.669Z,17.06
2018-07-17T00:22:17.147Z,16.69
2018-07-17T00:24:44.268Z,16.65
2018-07-17T00:27:11.155Z,17.19
2018-07-17T00:29:38.039Z,16.89
2018-07-17T00:32:04.951Z,16.81
2018-07-17T00:34:31.855Z,16.75
2018-07-17T00:36:58.807Z,16.68
2018-07-17T00:39:25.726Z,16.67
2018-07-17T00:41:52.626Z,16.62
2018-07-17T00:44:19.554Z,16.57
2018-07-17T00:46:46.443Z,16.60
2018-07-17T00:49:13.348Z,16.65
2018-07-17T00:51:43.561Z,16.60
2018-07-17T00:54:10.456Z,16.56
2018-07-17T00:56:37.387Z,16.49
2018-07-17T00:59:04.297Z,16.45
2018-07-17T01:01:36.871Z,16.38
2018-07-17T01:04:09.579Z,16.54
2018-07-17T01:06:44.383Z,16.75
2018-07-17T01:09:17.082Z,16.93
2018-07-17T01:11:49.667Z,16.92
2018-07-17T01:14:27.686Z,16.72
2018-07-17T01:16:54.566Z,16.50
2018-07-17T01:19:21.482Z,16.22
2018-07-17T01:21:48.412Z,16.11
2018-07-17T01:24:15.640Z,16.04
2018-07-17T01:26:42.607Z,16.02
2018-07-17T01:29:09.533Z,15.95
2018-07-17T01:31:37.431Z,16.02
2018-07-17T01:34:04.346Z,16.18
2018-07-17T01:36:31.240Z,16.24
2018-07-17T01:38:58.145Z,16.17
2018-07-17T01:41:25.063Z,16.10
2018-07-17T01:43:54.975Z,15.92
2018-07-17T01:46:21.928Z,15.88
2018-07-17T01:48:49.058Z,15.76
2018-07-17T01:51:15.944Z,15.55
2018-07-17T01:53:42.864Z,15.24
2018-07-17T01:56:09.755Z,15.51
2018-07-17T01:58:37.164Z,15.29
2018-07-17T02:01:04.075Z,15.30
2018-07-17T02:03:30.964Z,15.41
2018-07-17T02:05:57.844Z,15.44
2018-07-17T02:08:24.756Z,15.58
2018-07-17T02:10:51.656Z,15.40
2018-07-17T02:13:19.107Z,15.63
2018-07-17T02:15:46.324Z,15.89
2018-07-17T02:18:13.641Z,16.09
2018-07-17T02:20:40.686Z,16.35
2018-07-17T02:23:11.039Z,15.88
2018-07-17T02:25:38.003Z,16.15
2018-07-17T02:28:04.953Z,15.50
2018-07-17T02:30:31.906Z,16.12
2018-07-17T02:32:58.846Z,15.47
2018-07-17T02:35:25.790Z,15.49
2018-07-17T02:37:52.751Z,15.65
2018-07-17T02:40:19.720Z,15.74
2018-07-17T02:42:46.654Z,15.70
2018-07-17T02:45:13.548Z,15.61
2018-07-17T02:47:40.449Z,15.98
2018-07-17T02:50:08.044Z,15.39
2018-07-17T02:52:34.932Z,15.35
2018-07-17T02:55:01.836Z,15.41
2018-07-17T02:57:28.732Z,15.58
2018-07-17T02:59:55.673Z,15.66
2018-07-17T03:02:22.589Z,16.04
2018-07-17T03:04:49.557Z,16.09
2018-07-17T03:07:16.441Z,15.39
2018-07-17T03:09:43.331Z,15.31
2018-07-17T03:12:10.242Z,15.90
2018-07-17T03:14:37.255Z,15.68
2018-07-17T03:17:04.208Z,15.82
2018-07-17T03:19:31.119Z,15.88
2018-07-17T03:21:58.016Z,15.92
2018-07-17T03:24:24.972Z,15.83
2018-07-17T03:26:51.850Z,16.27
2018-07-17T03:29:19.925Z,16.05
2018-07-17T03:31:46.869Z,15.93
2018-07-17T03:34:14.736Z,15.90
2018-07-17T03:36:41.642Z,15.94
2018-07-17T03:39:08.519Z,16.01
2018-07-17T03:41:35.487Z,16.08
2018-07-17T03:44:02.435Z,16.15
2018-07-17T03:46:29.351Z,16.29
2018-07-17T03:48:56.245Z,16.39
2018-07-17T03:51:23.147Z,16.42
2018-07-17T03:53:53.149Z,16.41
2018-07-17T03:56:20.050Z,16.43
2018-07-17T03:58:46.940Z,16.52
2018-07-17T04:01:13.851Z,16.61
2018-07-17T04:03:40.764Z,16.92
2018-07-17T04:06:07.678Z,17.06
2018-07-17T04:08:34.605Z,17.28
2018-07-17T04:11:01.701Z,17.60
2018-07-17T04:13:28.641Z,17.80
2018-07-17T04:15:57.263Z,18.08
2018-07-17T04:18:24.170Z,18.30
2018-07-17T04:20:51.084Z,18.67
2018-07-17T04:23:18.015Z,19.16
2018-07-17T04:25:44.933Z,19.74
2018-07-17T04:28:11.836Z,20.48
2018-07-17T04:30:38.738Z,20.61
2018-07-17T04:33:05.665Z,20.77
2018-07-17T04:35:32.588Z,21.15
2018-07-17T04:37:59.500Z,21.15
2018-07-17T04:40:26.487Z,21.10
2018-07-17T04:42:53.404Z,20.71
2018-07-17T04:45:20.336Z,21.35
2018-07-17T04:47:47.241Z,21.36
2018-07-17T04:50:14.159Z,22.10
2018-07-17T04:52:41.234Z,21.45
2018-07-17T04:55:08.201Z,21.38
2018-07-17T04:57:35.107Z,21.28
2018-07-17T05:00:02.024Z,21.60
2018-07-17T05:02:28.931Z,21.40
2018-07-17T05:04:55.827Z,21.00
2018-07-17T05:07:22.780Z,20.47
2018-07-17T05:09:49.754Z,19.59
2018-07-17T05:12:16.663Z,19.49
2018-07-17T05:14:43.619Z,19.71
2018-07-17T05:17:10.543Z,19.60
2018-07-17T05:19:37.450Z,19.83
2018-07-17T05:22:04.351Z,20.01
2018-07-17T05:24:31.407Z,19.73
2018-07-17T05:26:58.359Z,20.10
2018-07-17T05:29:25.290Z,20.24
2018-07-17T05:31:52.175Z,20.57
2018-07-17T05:34:19.122Z,20.76
2018-07-17T05:36:46.050Z,20.77
2018-07-17T05:39:12.928Z,20.99
2018-07-17T05:41:39.819Z,20.74
2018-07-17T05:44:06.784Z,20.77
2018-07-17T05:46:33.857Z,21.36
2018-07-17T05:49:00.719Z,21.08
2018-07-17T05:51:27.611Z,21.10
2018-07-17T05:53:54.799Z,20.98
2018-07-17T05:56:21.703Z,21.10
2018-07-17T05:58:48.632Z,20.84
2018-07-17T06:01:15.570Z,21.02
2018-07-17T06:03:42.476Z,20.60
2018-07-17T06:06:09.382Z,21.05
2018-07-17T06:08:36.343Z,21.25
2018-07-17T06:11:03.356Z,21.20
2018-07-17T06:13:30.294Z,21.26
2018-07-17T06:15:57.205Z,21.26
2018-07-17T06:18:25.691Z,20.96
2018-07-17T06:20:53.625Z,21.27
2018-07-17T06:23:20.536Z,21.56
2018-07-17T06:25:47.458Z,21.87
2018-07-17T06:28:14.388Z,22.56
2018-07-17T06:30:41.369Z,22.58
2018-07-17T06:33:08.352Z,22.31
2018-07-17T06:35:35.232Z,23.07
2018-07-17T06:38:02.142Z,23.59
2018-07-17T06:40:29.106Z,23.30
2018-07-17T06:42:56.023Z,23.38
2018-07-17T06:45:22.963Z,23.30
2018-07-17T06:47:49.888Z,22.79
2018-07-17T06:50:17.237Z,22.76
2018-07-17T06:52:44.278Z,23.13
2018-07-17T06:55:11.334Z,23.57
2018-07-17T06:57:38.215Z,23.87
2018-07-17T07:00:05.182Z,24.20
2018-07-17T07:02:32.081Z,24.11
2018-07-17T07:04:59.007Z,23.96
2018-07-17T07:07:25.944Z,24.33
2018-07-17T07:09:52.839Z,24.76
2018-07-17T07:12:19.757Z,24.67
2018-07-17T07:14:46.661Z,24.97
2018-07-17T07:17:13.740Z,25.10
2018-07-17T07:19:40.637Z,25.46
2018-07-17T07:22:07.563Z,25.14
2018-07-17T07:24:34.498Z,25.59
2018-07-17T07:27:01.401Z,25.33
2018-07-17T07:29:28.332Z,25.16
2018-07-17T07:31:55.263Z,24.78
2018-07-17T07:34:22.155Z,25.03
2018-07-17T07:36:49.543Z,25.38
2018-07-17T07:39:16.469Z,25.24
2018-07-17T07:41:43.364Z,26.13
2018-07-17T07:44:10.593Z,26.38
2018-07-17T07:46:37.539Z,26.60
2018-07-17T07:49:04.619Z,25.86
2018-07-17T07:51:31.481Z,25.71
2018-07-17T07:53:58.433Z,26.31
2018-07-17T07:56:25.476Z,25.54
2018-07-17T07:58:52.768Z,25.50
2018-07-17T08:01:20.420Z,25.75
2018-07-17T08:03:47.453Z,25.94
2018-07-17T08:06:14.392Z,26.49
2018-07-17T08:08:42.781Z,26.81
2018-07-17T08:11:09.703Z,27.05
2018-07-17T08:13:36.865Z,27.70
2018-07-17T08:16:03.780Z,27.44
2018-07-17T08:18:30.720Z,27.70
2018-07-17T08:20:57.640Z,27.90
2018-07-17T08:23:24.567Z,27.17
2018-07-17T08:25:51.486Z,27.15
2018-07-17T08:28:18.480Z,27.58
2018-07-17T08:30:45.387Z,27.33
2018-07-17T08:33:12.303Z,27.46
2018-07-17T08:35:39.223Z,27.65
2018-07-17T08:38:06.368Z,28.22
2018-07-17T08:40:33.311Z,27.27
2018-07-17T08:43:00.221Z,27.49
2018-07-17T08:45:27.120Z,27.39
2018-07-17T08:47:54.049Z,27.46
2018-07-17T08:50:20.986Z,28.19
2018-07-17T08:52:47.929Z,27.61
2018-07-17T08:55:14.828Z,28.08
2018-07-17T08:57:41.759Z,28.49
2018-07-17T09:00:08.715Z,28.23
2018-07-17T09:02:36.035Z,28.81
2018-07-17T09:05:03.954Z,29.52
2018-07-17T09:07:31.816Z,29.80
2018-07-17T09:09:58.773Z,30.03
2018-07-17T09:12:25.719Z,29.32
2018-07-17T09:14:52.612Z,28.98
2018-07-17T09:17:19.562Z,29.42
2018-07-17T09:19:46.481Z,28.97
2018-07-17T09:22:13.402Z,29.25
2018-07-17T09:24:40.624Z,29.21
2018-07-17T09:27:07.646Z,28.89
2018-07-17T09:29:34.572Z,29.11
2018-07-17T09:32:01.487Z,30.18
2018-07-17T09:34:28.376Z,30.60
2018-07-17T09:36:55.331Z,30.08
2018-07-17T09:39:22.303Z,30.77
2018-07-17T09:41:49.247Z,30.37
2018-07-17T09:44:16.144Z,29.73
2018-07-17T09:46:43.031Z,29.61
2018-07-17T09:49:09.996Z,30.10
2018-07-17T09:51:36.921Z,30.08
2018-07-17T09:54:03.887Z,30.86
2018-07-17T09:56:30.780Z,31.35
2018-07-17T09:58:57.711Z,30.46
2018-07-17T10:01:30.440Z,30.41
2018-07-17T10:03:57.348Z,31.08
2018-07-17T10:06:24.358Z,31.60
2018-07-17T10:08:51.222Z,31.33
2018-07-17T10:11:18.151Z,30.93
2018-07-17T10:13:45.113Z,31.59
2018-07-17T10:16:12.051Z,30.81
2018-07-17T10:18:38.935Z,31.74
2018-07-17T10:21:06.396Z,32.31
2018-07-17T10:23:33.320Z,32.00
2018-07-17T10:26:00.258Z,32.81
2018-07-17T10:28:27.191Z,32.38
2018-07-17T10:30:54.148Z,32.24
2018-07-17T10:33:21.159Z,33.32
2018-07-17T10:35:48.467Z,32.96
2018-07-17T10:38:15.443Z,31.99
2018-07-17T10:40:42.349Z,31.41
2018-07-17T10:43:09.681Z,32.30
2018-07-17T10:45:36.611Z,32.32
2018-07-17T10:48:03.517Z,32.22
2018-07-17T10:50:30.465Z,32.10
2018-07-17T10:52:57.376Z,32.74
2018-07-17T10:55:24.362Z,33.42
2018-07-17T10:57:51.267Z,32.27
2018-07-17T11:00:19.007Z,32.94
2018-07-17T11:02:45.936Z,32.55
2018-07-17T11:05:12.911Z,32.89
2018-07-17T11:07:39.913Z,33.24
2018-07-17T11:10:06.806Z,31.95
2018-07-17T11:12:33.760Z,31.74
2018-07-17T11:15:00.690Z,31.50
2018-07-17T11:17:27.603Z,32.55
2018-07-17T11:19:54.541Z,32.92
2018-07-17T11:22:21.431Z,32.94
2018-07-17T11:24:48.403Z,32.00
2018-07-17T11:27:15.326Z,32.20
2018-07-17T11:29:42.264Z,32.43
2018-07-17T11:32:09.171Z,32.72
2018-07-17T11:34:37.019Z,32.70
2018-07-17T11:37:04.040Z,32.58
2018-07-17T11:39:31.134Z,32.67
2018-07-17T11:41:58.031Z,32.98
2018-07-17T11:44:24.966Z,32.72
2018-07-17T11:46:51.850Z,33.20
2018-07-17T11:49:18.765Z,32.87
2018-07-17T11:51:45.671Z,32.33
2018-07-17T11:54:12.606Z,32.44
2018-07-17T11:56:39.521Z,32.85
2018-07-17T11:59:06.554Z,32.93
2018-07-17T12:01:33.422Z,32.22
2018-07-17T12:04:00.358Z,33.46
2018-07-17T12:06:27.263Z,33.84
2018-07-17T12:08:54.173Z,33.35
2018-07-17T12:11:21.068Z,33.02
2018-07-17T12:13:48.084Z,32.38
2018-07-17T12:16:14.972Z,31.67
2018-07-17T12:18:41.905Z,31.48
2018-07-17T12:21:08.849Z,31.55
2018-07-17T12:23:35.786Z,31.73
2018-07-17T12:26:02.703Z,32.04
2018-07-17T12:28:29.591Z,32.12
2018-07-17T12:30:56.562Z,32.27
2018-07-17T12:33:23.448Z,32.35
2018-07-17T12:35:50.377Z,32.69
2018-07-17T12:38:17.277Z,32.87
2018-07-17T12:40:44.169Z,33.09
2018-07-17T12:43:11.116Z,32.83
2018-07-17T12:45:38.027Z,32.75
2018-07-17T12:48:04.962Z,30.33
2018-07-17T12:50:31.867Z,29.29
2018-07-17T12:52:58.795Z,28.39
2018-07-17T12:55:26.704Z,28.09
2018-07-17T12:57:53.600Z,27.92
2018-07-17T13:00:20.520Z,27.95
2018-07-17T13:02:47.473Z,27.67
2018-07-17T13:05:14.384Z,28.07
2018-07-17T13:07:41.375Z,28.42
2018-07-17T13:10:08.282Z,28.76
2018-07-17T13:12:35.205Z,28.88
2018-07-17T13:15:02.567Z,28.83
2018-07-17T13:17:29.544Z,28.98
2018-07-17T13:19:56.377Z,28.61
2018-07-17T13:22:23.308Z,28.00
2018-07-17T13:24:50.244Z,27.50
2018-07-17T13:27:17.151Z,27.32
2018-07-17T13:29:44.064Z,27.08
2018-07-17T13:32:10.971Z,27.15
2018-07-17T13:34:37.877Z,27.01
2018-07-17T13:37:04.785Z,26.92
2018-07-17T13:39:31.698Z,27.15
2018-07-17T13:41:58.635Z,27.29
2018-07-17T13:44:25.535Z,27.57
2018-07-17T13:46:52.437Z,27.61
2018-07-17T13:49:19.339Z,27.52
2018-07-17T13:51:46.331Z,28.10
2018-07-17T13:54:17.019Z,28.46
2018-07-17T13:56:43.955Z,28.80
2018-07-17T13:59:10.900Z,28.49
2018-07-17T14:01:37.807Z,28.06
2018-07-17T14:04:04.809Z,28.11
2018-07-17T14:06:31.819Z,28.08
2018-07-17T14:08:58.709Z,28.75
2018-07-17T14:11:25.640Z,29.41
2018-07-17T14:13:52.615Z,29.74
2018-07-17T14:16:19.532Z,30.06
2018-07-17T14:18:46.455Z,30.33
2018-07-17T14:21:13.351Z,30.21
2018-07-17T14:23:40.357Z,30.56
2018-07-17T14:26:07.262Z,30.36
2018-07-17T14:28:34.172Z,30.20
2018-07-17T14:31:01.067Z,30.63
2018-07-17T14:33:27.983Z,30.66
2018-07-17T14:35:54.953Z,30.64
2018-07-17T14:38:22.790Z,30.60
2018-07-17T14:40:49.704Z,30.94
2018-07-17T14:43:16.630Z,31.06
2018-07-17T14:45:43.547Z,31.52
2018-07-17T14:48:10.473Z,31.87
2018-07-17T14:50:37.371Z,33.10
2018-07-17T14:53:04.291Z,33.31
2018-07-17T14:55:31.207Z,33.53
2018-07-17T14:57:58.161Z,34.09
2018-07-17T15:00:25.081Z,35.03
2018-07-17T15:02:52.021Z,35.93
2018-07-17T15:05:18.932Z,34.76
2018-07-17T15:07:45.827Z,35.44
2018-07-17T15:10:12.737Z,35.97
2018-07-17T15:12:39.640Z,37.04
2018-07-17T15:15:06.796Z,37.85
2018-07-17T15:17:33.728Z,37.75
2018-07-17T15:20:00.671Z,39.04
2018-07-17T15:22:27.770Z,39.42
2018-07-17T15:24:54.819Z,39.46
2018-07-17T15:27:21.751Z,39.10
2018-07-17T15:29:48.670Z,39.27
2018-07-17T15:32:15.614Z,39.85
2018-07-17T15:34:42.514Z,40.76
2018-07-17T15:37:09.426Z,39.73
2018-07-17T15:39:36.357Z,36.96
2018-07-17T15:42:03.289Z,37.35
2018-07-17T15:44:30.201Z,37.21
2018-07-17T15:46:57.147Z,36.20
2018-07-17T15:49:24.052Z,36.74
2018-07-17T15:51:50.998Z,36.22
2018-07-17T15:54:17.926Z,34.43
2018-07-17T15:56:44.819Z,33.97
2018-07-17T15:59:11.724Z,33.26
2018-07-17T16:01:38.644Z,33.02
2018-07-17T16:04:05.536Z,31.56
2018-07-17T16:06:32.506Z,30.96
2018-07-17T16:08:59.413Z,30.75
2018-07-17T16:11:26.319Z,30.41
2018-07-17T16:13:53.411Z,30.02
2018-07-17T16:16:23.492Z,30.21
2018-07-17T16:18:50.420Z,29.66
2018-07-17T16:21:17.386Z,29.20
2018-07-17T16:23:44.277Z,30.24
2018-07-17T16:26:11.179Z,31.51
2018-07-17T16:28:39.058Z,32.24
2018-07-17T16:31:06.008Z,32.69
2018-07-17T16:33:32.922Z,32.55
2018-07-17T16:35:59.874Z,33.11
2018-07-17T16:38:37.859Z,33.83
2018-07-17T16:41:05.002Z,33.79
2018-07-17T16:43:31.902Z,33.72
2018-07-17T16:45:58.819Z,34.37
2018-07-17T16:48:25.723Z,34.42
2018-07-17T16:50:52.648Z,34.86
2018-07-17T16:53:19.568Z,34.50
2018-07-17T16:55:46.464Z,34.82
2018-07-17T16:58:13.361Z,35.57
2018-07-17T17:00:40.252Z,36.14
2018-07-17T17:03:07.151Z,36.48
2018-07-17T17:05:34.044Z,37.19
2018-07-17T17:08:01.043Z,36.80
2018-07-17T17:10:27.961Z,37.24
2018-07-17T17:12:54.862Z,36.98
2018-07-17T17:15:21.733Z,36.03
2018-07-17T17:17:48.657Z,35.34
2018-07-17T17:20:15.548Z,35.04
2018-07-17T17:22:42.471Z,35.51
2018-07-17T17:25:09.393Z,36.09
2018-07-17T17:27:36.253Z,36.55
2018-07-17T17:30:03.218Z,36.19
2018-07-17T17:32:30.122Z,35.93
2018-07-17T17:34:57.017Z,35.55
2018-07-17T17:37:23.915Z,35.48
2018-07-17T17:39:50.870Z,35.18
2018-07-17T17:42:17.714Z,35.53
2018-07-17T17:44:44.615Z,35.20
2018-07-17T17:47:11.499Z,34.82
2018-07-17T17:49:39.366Z,32.98
2018-07-17T17:52:06.237Z,30.89
2018-07-17T17:54:36.363Z,29.79
2018-07-17T17:57:03.265Z,28.88
2018-07-17T17:59:30.196Z,29.52
2018-07-17T18:01:57.124Z,28.39
2018-07-17T18:04:24.090Z,28.82
2018-07-17T18:06:51.011Z,27.82
2018-07-17T18:09:17.927Z,27.38
2018-07-17T18:11:44.839Z,27.38
2018-07-17T18:14:11.752Z,27.21
2018-07-17T18:16:38.643Z,27.23
2018-07-17T18:19:08.755Z,27.37
2018-07-17T18:21:35.669Z,27.47
2018-07-17T18:24:02.551Z,27.45
2018-07-17T18:26:29.436Z,28.20
2018-07-17T18:28:56.354Z,28.88
2018-07-17T18:31:23.248Z,29.45
2018-07-17T18:33:50.153Z,28.91
2018-07-17T18:36:17.047Z,28.67
2018-07-17T18:38:43.939Z,28.58
2018-07-17T18:41:10.844Z,28.55
2018-07-17T18:43:37.758Z,28.51
2018-07-17T18:46:04.838Z,28.47
2018-07-17T18:48:31.747Z,28.39
2018-07-17T18:50:58.677Z,28.28
2018-07-17T18:53:25.626Z,28.04
2018-07-17T18:55:52.550Z,27.93
2018-07-17T18:58:19.450Z,27.90
2018-07-17T19:00:46.373Z,27.83
2018-07-17T19:03:13.391Z,27.66
2018-07-17T19:05:41.305Z,28.17
2018-07-17T19:08:08.231Z,27.70
2018-07-17T19:10:35.140Z,27.48
2018-07-17T19:13:02.052Z,27.31
2018-07-17T19:15:28.976Z,27.10
2018-07-17T19:17:55.908Z,27.44
2018-07-17T19:20:22.854Z,26.82
2018-07-17T19:22:49.762Z,26.41
2018-07-17T19:25:16.672Z,25.96
2018-07-17T19:27:43.573Z,25.66
2018-07-17T19:30:10.478Z,25.60
2018-07-17T19:32:37.419Z,25.24
2018-07-17T19:35:04.377Z,25.06
2018-07-17T19:37:31.293Z,25.03
2018-07-17T19:39:58.214Z,25.01
2018-07-17T19:42:25.159Z,24.97
2018-07-17T19:44:52.104Z,24.82
2018-07-17T19:47:19.031Z,24.63
2018-07-17T19:52:12.929Z,24.01
2018-07-17T19:54:41.093Z,23.90
2018-07-17T19:57:08.012Z,23.87
2018-07-17T19:59:35.024Z,24.09
2018-07-17T20:02:01.976Z,23.97
2018-07-17T20:04:28.880Z,23.84
2018-07-17T20:06:55.946Z,23.80
2018-07-17T20:09:23.069Z,23.77
2018-07-17T20:11:50.002Z,23.67
2018-07-17T20:14:17.836Z,23.60
2018-07-17T20:16:44.736Z,23.52
2018-07-17T20:19:11.632Z,23.53
2018-07-17T20:21:38.555Z,23.44
2018-07-17T20:24:05.462Z,23.31
2018-07-17T20:26:32.407Z,23.15
2018-07-17T20:28:59.341Z,23.06
2018-07-17T20:31:27.489Z,23.06
2018-07-17T20:33:54.311Z,23.09
2018-07-17T20:36:21.978Z,23.05
2018-07-17T20:38:48.981Z,22.95
2018-07-17T20:41:16.004Z,22.88
2018-07-17T20:43:43.858Z,22.83
2018-07-17T20:46:10.867Z,22.29
2018-07-17T20:48:37.767Z,22.16
2018-07-17T20:51:04.675Z,21.76
2018-07-17T20:53:31.567Z,21.58
2018-07-17T20:56:01.545Z,21.53
2018-07-17T20:58:28.452Z,21.43
2018-07-17T21:00:55.395Z,21.39
2018-07-17T21:03:22.315Z,21.56
2018-07-17T21:05:49.215Z,21.35
2018-07-17T21:08:16.123Z,21.28
2018-07-17T21:10:43.040Z,21.31
2018-07-17T21:13:10.008Z,21.22
2018-07-17T21:15:36.818Z,21.10
2018-07-17T21:18:03.713Z,21.13
2018-07-17T21:20:30.619Z,21.05
2018-07-17T21:22:57.522Z,20.98
2018-07-17T21:25:24.490Z,20.98
2018-07-17T21:27:51.645Z,21.02
2018-07-17T21:30:18.548Z,20.99
2018-07-17T21:32:45.448Z,20.91
2018-07-17T21:35:12.349Z,20.95
2018-07-17T21:37:39.246Z,20.91
2018-07-17T21:40:06.144Z,20.65
2018-07-17T21:42:33.027Z,20.60
2018-07-17T21:44:59.907Z,20.49
2018-07-17T21:47:26.821Z,20.51
2018-07-17T21:49:53.759Z,20.52
2018-07-17T21:52:20.884Z,20.64
2018-07-17T21:54:48.006Z,20.70
2018-07-17T21:57:14.947Z,20.87
2018-07-17T21:59:41.839Z,20.92
2018-07-17T22:04:57.700Z,20.79
2018-07-17T22:07:24.575Z,20.77
2018-07-17T22:12:43.887Z,20.72
2018-07-17T22:15:10.775Z,20.61
2018-07-17T22:17:37.624Z,20.79
2018-07-17T22:20:04.666Z,20.57
2018-07-17T22:22:31.520Z,20.55
2018-07-17T22:24:59.415Z,20.70
2018-07-17T22:27:26.274Z,20.82
2018-07-17T22:29:53.172Z,20.92
2018-07-17T22:32:20.029Z,20.84
2018-07-17T22:34:46.875Z,20.82
2018-07-17T22:37:13.891Z,20.14
2018-07-17T22:39:40.727Z,19.79
2018-07-17T22:42:08.273Z,19.85
2018-07-17T22:44:35.099Z,20.49
2018-07-17T22:47:01.967Z,20.48
2018-07-17T22:49:28.836Z,20.66
2018-07-17T22:51:55.702Z,20.62
2018-07-17T22:54:23.440Z,20.57
2018-07-17T22:56:50.331Z,20.53
2018-07-17T22:59:18.207Z,20.56
2018-07-17T23:01:45.178Z,20.62
2018-07-17T23:04:12.048Z,20.72
2018-07-17T23:06:38.973Z,20.82
2018-07-17T23:09:07.659Z,20.94
2018-07-17T23:11:34.556Z,21.01
2018-07-17T23:14:01.408Z,20.94
2018-07-17T23:16:28.274Z,20.72
2018-07-17T23:18:55.139Z,20.53
2018-07-17T23:21:22.003Z,20.13
2018-07-17T23:23:48.888Z,19.90
2018-07-17T23:26:15.747Z,19.74
2018-07-17T23:28:42.599Z,19.75
2018-07-17T23:31:09.524Z,19.87
2018-07-17T23:33:36.415Z,20.03
2018-07-17T23:36:03.277Z,19.98
2018-07-17T23:38:30.795Z,19.96
2018-07-17T23:40:57.650Z,20.44
2018-07-17T23:43:26.419Z,20.18
2018-07-17T23:45:53.279Z,20.18
2018-07-17T23:48:20.156Z,20.78
2018-07-17T23:50:47.031Z,20.24
2018-07-17T23:53:13.933Z,20.09
2018-07-17T23:55:41.195Z,20.19
2018-07-17T23:58:08.055Z,20.18
